Terminal Aerodrome Forecast
Issued by NWS

Home | Current Version | Previous Version | Text Only | Print | Product List | Glossary On
Versions: 1 2 3 4 5 6 7 8 9 10 11 12 13 14 15 16 17 18 19 20 21 22 23
000
FTUS43 KLOT 281725
TAFGYY
TAF
KGYY 281725Z 2818/2918 18015G25KT P6SM VCSH SCT045 BKN120
      TEMPO 2818/2819 6SM -SHRA BKN045
     FM282000 19019G30KT P6SM SCT045 BKN120
     FM290300 21017G28KT P6SM VCTS BKN060CB
      TEMPO 2904/2908 2SM TSRA OVC050CB
     FM290900 22013G22KT P6SM SCT040 OVC090=

USA.gov is the U.S. government's official web portal to all federal, state and local government web resources and services.